Time;durP1;ratioP1;P1;durP2;ratioP2;P2;SDS_P1;SDS_P2;PMS_P1;PMS_P2;Temp;Humidity;BMP_temperature;BMP_pressure;BME280_temperature;BME280_humidity;BME280_pressure;Samples;Min_cycle;Max_cycle;Signal;HPM_P1;HPM_P2
2023/02/25 00:00:22;;;;;;;11.33;3.00;;;;;;;3.25;100.00;99003.91;5053637;28;20291;-79
2023/02/25 00:02:49;;;;;;;13.57;3.43;;;;;;;3.33;100.00;99014.97;5053380;28;20214;-79
2023/02/25 00:05:18;;;;;;;17.30;2.93;;;;;;;3.38;100.00;99026.09;5053080;28;20691;-80
2023/02/25 00:07:45;;;;;;;16.77;2.53;;;;;;;3.36;100.00;99044.16;5054038;28;20198;-80
2023/02/25 00:10:13;;;;;;;16.87;2.87;;;;;;;3.36;100.00;99057.06;5054007;28;20218;-79
2023/02/25 00:12:40;;;;;;;17.63;3.30;;;;;;;3.38;100.00;99046.72;5054024;28;20288;-80
2023/02/25 00:15:08;;;;;;;14.33;2.73;;;;;;;3.32;100.00;99039.91;5054137;28;20198;-79
2023/02/25 00:17:36;;;;;;;14.07;2.90;;;;;;;3.29;100.00;99037.38;5053749;28;20197;-79
2023/02/25 00:20:08;;;;;;;9.63;2.37;;;;;;;3.29;100.00;99041.66;5050550;28;20213;-80
2023/02/25 00:22:37;;;;;;;13.03;3.47;;;;;;;3.38;100.00;99033.84;5053390;28;20215;-80
2023/02/25 00:25:04;;;;;;;8.60;2.40;;;;;;;3.39;100.00;99053.59;5050885;28;20858;-79
2023/02/25 00:27:31;;;;;;;12.73;3.00;;;;;;;3.31;100.00;99047.66;5053700;28;20742;-80
2023/02/25 00:29:57;;;;;;;11.23;2.70;;;;;;;3.34;99.94;99069.13;5053132;28;20304;-80
2023/02/25 00:32:24;;;;;;;13.53;2.50;;;;;;;3.35;99.89;99067.38;5052149;28;20277;-79
2023/02/25 00:34:51;;;;;;;10.67;2.97;;;;;;;3.43;99.44;99073.31;5054753;28;20197;-79
2023/02/25 00:37:17;;;;;;;8.10;2.50;;;;;;;3.45;98.65;99091.34;5056070;28;20197;-78
2023/02/25 00:39:45;;;;;;;4.53;1.87;;;;;;;3.43;98.51;99106.88;5052540;28;20236;-81
2023/02/25 00:42:13;;;;;;;7.47;2.60;;;;;;;3.42;98.38;99102.56;5056403;28;20255;-79
2023/02/25 00:44:40;;;;;;;6.53;2.20;;;;;;;3.44;98.13;99113.72;5055545;28;20218;-80
2023/02/25 00:47:06;;;;;;;6.00;2.20;;;;;;;3.41;97.99;99103.44;5056771;28;20263;-80
2023/02/25 00:49:33;;;;;;;17.93;4.13;;;;;;;3.41;97.68;99108.59;5056718;28;20226;-79
2023/02/25 00:52:00;;;;;;;5.20;2.00;;;;;;;3.42;97.15;99109.44;5056462;28;20229;-80
2023/02/25 00:54:26;;;;;;;10.87;1.80;;;;;;;3.38;97.92;99124.09;5056039;28;20204;-80
2023/02/25 00:56:54;;;;;;;9.20;2.50;;;;;;;3.30;98.46;99111.28;5056432;28;20194;-81
2023/02/25 00:59:21;;;;;;;5.67;1.57;;;;;;;3.33;98.22;99121.59;5055633;28;20221;-80
2023/02/25 01:01:47;;;;;;;15.80;3.03;;;;;;;3.36;98.97;99111.22;5055591;28;20205;-80
2023/02/25 01:04:14;;;;;;;8.73;2.20;;;;;;;3.42;98.10;99118.03;5055453;28;20257;-79
2023/02/25 01:06:40;;;;;;;6.03;1.70;;;;;;;3.36;96.50;99143.91;5055910;28;20206;-80
2023/02/25 01:09:12;;;;;;;7.60;1.93;;;;;;;3.42;97.71;99142.97;5055872;28;20704;-80
2023/02/25 01:11:40;;;;;;;9.87;2.57;;;;;;;3.44;96.96;99143.81;5055825;28;20212;-79
2023/02/25 01:14:10;;;;;;;11.23;2.10;;;;;;;3.41;95.88;99172.22;5055254;28;20248;-79
2023/02/25 01:16:37;;;;;;;9.33;2.27;;;;;;;3.44;96.30;99188.50;5055845;28;20201;-79
2023/02/25 01:19:05;;;;;;;9.27;2.90;;;;;;;3.31;96.97;99169.75;5052322;28;20910;-80
2023/02/25 01:21:34;;;;;;;7.93;2.73;;;;;;;3.42;98.96;99142.97;5055403;28;20222;-79
2023/02/25 01:24:04;;;;;;;7.03;2.30;;;;;;;3.43;99.36;99121.47;5055240;28;20230;-80
2023/02/25 01:26:33;;;;;;;8.90;2.90;;;;;;;3.36;100.00;99093.16;5055264;28;20224;-80
2023/02/25 01:28:59;;;;;;;10.70;2.10;;;;;;;3.33;100.00;99070.00;5055252;28;20214;-79
2023/02/25 01:31:28;;;;;;;7.63;1.97;;;;;;;3.22;100.00;99040.06;5055503;28;20209;-79
2023/02/25 01:33:56;;;;;;;8.37;2.57;;;;;;;3.28;100.00;99007.31;5055411;28;20571;-79
2023/02/25 01:36:22;;;;;;;6.97;1.97;;;;;;;3.26;100.00;98998.72;5055879;28;20198;-80
2023/02/25 01:38:49;;;;;;;9.17;2.73;;;;;;;3.22;100.00;98973.84;5054900;28;20245;-78
2023/02/25 01:41:15;;;;;;;12.17;2.33;;;;;;;3.18;100.00;98985.94;5055090;28;20210;-80
2023/02/25 01:43:42;;;;;;;9.80;2.83;;;;;;;3.29;100.00;98979.78;5054859;28;20209;-80
2023/02/25 01:46:08;;;;;;;14.17;2.17;;;;;;;3.29;100.00;98961.72;5055150;28;20268;-80
2023/02/25 01:48:40;;;;;;;11.00;2.30;;;;;;;3.36;100.00;98963.38;5054746;28;20296;-79
2023/02/25 01:51:09;;;;;;;6.53;2.20;;;;;;;3.26;100.00;98982.41;5054619;28;20255;-80
2023/02/25 01:53:40;;;;;;;9.23;2.47;;;;;;;3.27;100.00;98987.56;5055002;28;20275;-80
2023/02/25 01:56:09;;;;;;;9.17;2.53;;;;;;;3.19;100.00;99009.97;5055435;28;20205;-79
2023/02/25 01:58:35;;;;;;;12.93;2.93;;;;;;;3.26;100.00;99015.94;5054573;28;20664;-80
2023/02/25 02:01:02;;;;;;;9.60;2.23;;;;;;;3.16;100.00;99028.94;5054557;28;20213;-80
2023/02/25 02:03:33;;;;;;;8.67;2.27;;;;;;;3.15;100.00;99032.41;5055801;28;20647;-80
2023/02/25 02:06:10;;;;;;;12.77;2.40;;;;;;;3.08;100.00;99037.63;5055297;28;20769;-79
2023/02/25 02:08:38;;;;;;;13.30;2.50;;;;;;;3.07;100.00;99049.69;5055100;28;20745;-80
2023/02/25 02:11:05;;;;;;;13.70;2.37;;;;;;;3.10;100.00;99039.31;5055087;28;20680;-80
2023/02/25 02:13:35;;;;;;;10.60;2.53;;;;;;;3.15;100.00;99042.72;5054971;28;20210;-80
2023/02/25 02:16:15;;;;;;;8.30;2.20;;;;;;;3.01;100.00;99066.91;5055354;28;20255;-80
2023/02/25 02:18:48;;;;;;;9.87;2.00;;;;;;;3.08;100.00;99078.88;5054741;28;20230;-80
2023/02/25 02:21:34;;;;;;;5.13;2.23;;;;;;;3.09;100.00;99098.63;5055050;28;20223;-81
2023/02/25 02:24:40;;;;;;;6.47;1.67;;;;;;;3.13;100.00;99113.19;5055294;28;20208;-80
2023/02/25 02:27:09;;;;;;;8.53;2.53;;;;;;;3.14;99.98;99125.22;5031773;28;20201;-80
2023/02/25 02:30:08;;;;;;;9.03;2.00;;;;;;;3.15;100.00;99132.06;5054734;28;20299;-80
2023/02/25 02:32:43;;;;;;;6.90;2.40;;;;;;;3.12;99.50;99132.97;5055054;28;20687;-80
2023/02/25 02:35:19;;;;;;;10.13;2.47;;;;;;;3.04;98.60;99157.13;5055387;28;20205;-81
2023/02/25 02:37:57;;;;;;;5.87;2.13;;;;;;;3.07;99.03;99163.09;5054722;28;20205;-80
2023/02/25 02:40:37;;;;;;;9.13;2.33;;;;;;;3.09;98.94;99151.06;5054737;28;20312;-81
2023/02/25 02:43:21;;;;;;;9.67;2.17;;;;;;;3.04;98.50;99164.84;5055027;28;20205;-80
2023/02/25 02:45:52;;;;;;;7.60;2.07;;;;;;;3.00;98.46;99182.06;5055215;28;20584;-80
2023/02/25 02:48:24;;;;;;;8.90;2.40;;;;;;;3.01;98.31;99182.91;5055326;28;20267;-80
2023/02/25 02:50:55;;;;;;;8.87;1.97;;;;;;;3.02;98.62;99203.53;5054099;28;20688;-79
2023/02/25 02:53:27;;;;;;;5.13;2.00;;;;;;;3.02;98.44;99188.06;5054084;28;20202;-80
2023/02/25 02:55:56;;;;;;;9.10;2.80;;;;;;;3.09;98.85;99200.03;5055127;28;20201;-80
2023/02/25 02:58:29;;;;;;;7.20;2.87;;;;;;;3.10;98.38;99193.16;5054676;28;20206;-80
2023/02/25 03:01:02;;;;;;;5.60;1.90;;;;;;;3.14;97.95;99207.72;5054543;28;20216;-80
2023/02/25 03:03:35;;;;;;;3.77;1.60;;;;;;;3.09;97.35;99217.22;5054665;28;20201;-80
2023/02/25 03:06:05;;;;;;;5.23;1.73;;;;;;;3.12;97.16;99233.50;5054872;28;20283;-80
2023/02/25 03:08:35;;;;;;;9.00;1.93;;;;;;;3.12;96.56;99248.13;5054015;28;20230;-80
2023/02/25 03:11:02;;;;;;;7.33;1.40;;;;;;;3.11;95.49;99273.06;5054375;28;20206;-80
2023/02/25 03:13:28;;;;;;;5.03;1.47;;;;;;;3.07;95.02;99291.13;5054618;28;20668;-80
2023/02/25 03:15:57;;;;;;;3.27;1.50;;;;;;;3.06;94.74;99310.06;5054528;28;20202;-80
2023/02/25 03:18:30;;;;;;;7.37;1.70;;;;;;;3.15;94.03;99321.16;5054663;28;20229;-80
2023/02/25 03:21:00;;;;;;;6.43;2.10;;;;;;;2.99;96.04;99298.91;5054957;28;20259;-80
2023/02/25 03:23:30;;;;;;;4.10;1.57;;;;;;;3.06;96.55;99279.13;5054065;28;20202;-81
2023/02/25 03:26:05;;;;;;;9.07;2.73;;;;;;;2.94;97.53;99256.84;5054957;28;20782;-81
2023/02/25 03:28:33;;;;;;;9.07;1.43;;;;;;;2.90;97.17;99250.88;5054554;28;20221;-81
2023/02/25 03:31:06;;;;;;;5.40;1.63;;;;;;;2.92;97.08;99258.59;5055017;28;20259;-81
2023/02/25 03:33:37;;;;;;;9.33;2.50;;;;;;;2.88;97.28;99252.59;5053934;28;20698;-81
2023/02/25 03:36:09;;;;;;;9.37;1.87;;;;;;;2.88;96.71;99264.63;5055349;28;20704;-80
2023/02/25 03:38:41;;;;;;;7.47;1.70;;;;;;;2.88;95.69;99270.63;5057793;28;20230;-80
2023/02/25 03:41:10;;;;;;;9.77;2.20;;;;;;;3.04;95.79;99291.16;5057804;28;20206;-80
2023/02/25 03:43:40;;;;;;;4.70;1.67;;;;;;;3.10;96.05;99297.13;5058074;28;20202;-80
2023/02/25 03:46:07;;;;;;;6.83;1.27;;;;;;;3.10;95.54;99304.00;5057707;28;20229;-81
2023/02/25 03:48:37;;;;;;;3.73;1.50;;;;;;;3.04;95.62;99306.63;5057819;28;20225;-80
2023/02/25 03:51:06;;;;;;;4.67;1.40;;;;;;;3.16;96.32;99303.97;5057939;28;20252;-81
2023/02/25 03:53:34;;;;;;;5.73;1.80;;;;;;;3.17;95.55;99313.38;5057441;28;20202;-78
2023/02/25 03:56:05;;;;;;;6.17;1.50;;;;;;;3.20;95.16;99326.28;5057746;28;20205;-80
2023/02/25 03:58:32;;;;;;;3.40;1.50;;;;;;;3.19;94.28;99352.91;5057516;28;20601;-80
2023/02/25 04:01:02;;;;;;;5.00;1.33;;;;;;;3.17;93.48;99370.13;5057550;28;20288;-79
2023/02/25 04:03:28;;;;;;;6.03;1.50;;;;;;;3.16;93.93;99371.84;5057563;28;20216;-81
2023/02/25 04:05:55;;;;;;;7.17;1.43;;;;;;;3.11;94.97;99372.75;5058229;28;20226;-81
2023/02/25 04:08:22;;;;;;;6.13;1.50;;;;;;;3.13;94.48;99353.84;5057599;28;20210;-81
2023/02/25 04:10:49;;;;;;;4.20;1.13;;;;;;;3.03;95.62;99352.16;5057290;28;20259;-80
2023/02/25 04:13:19;;;;;;;3.00;1.10;;;;;;;3.02;96.09;99339.28;5057063;28;20259;-79
2023/02/25 04:15:46;;;;;;;5.00;1.80;;;;;;;2.99;96.21;99332.41;5057889;28;20207;-80
2023/02/25 04:18:13;;;;;;;5.23;1.40;;;;;;;3.02;96.48;99311.78;5057209;28;20216;-81
2023/02/25 04:20:40;;;;;;;8.60;2.83;;;;;;;3.07;97.04;99302.31;5057440;28;20205;-80
2023/02/25 04:23:07;;;;;;;6.70;1.43;;;;;;;3.09;97.13;99303.16;5057419;28;20578;-80
2023/02/25 04:25:36;;;;;;;6.93;1.43;;;;;;;3.04;96.95;99289.44;5057121;28;20255;-80
2023/02/25 04:28:02;;;;;;;6.07;1.63;;;;;;;3.06;96.18;99307.47;5056874;28;20206;-79
2023/02/25 04:30:29;;;;;;;3.63;1.50;;;;;;;3.02;95.26;99321.25;5057352;28;20225;-80
2023/02/25 04:32:55;;;;;;;7.43;1.70;;;;;;;3.05;94.58;99350.41;5057611;28;20212;-80
2023/02/25 04:35:21;;;;;;;6.43;1.83;;;;;;;3.06;94.26;99359.88;5057241;28;20210;-79
2023/02/25 04:37:47;;;;;;;7.30;1.80;;;;;;;3.11;95.04;99365.88;5057476;28;20270;-80
2023/02/25 04:40:17;;;;;;;6.10;1.90;;;;;;;3.02;95.81;99355.63;5056871;28;20221;-80
2023/02/25 04:42:46;;;;;;;5.10;1.60;;;;;;;3.00;96.34;99339.31;5056529;28;20836;-81
2023/02/25 04:45:14;;;;;;;5.57;1.13;;;;;;;2.98;96.00;99323.00;5056818;28;20259;-78
2023/02/25 04:47:41;;;;;;;4.50;1.43;;;;;;;2.95;95.81;99339.34;5055994;28;20294;-79
2023/02/25 04:50:10;;;;;;;8.07;1.43;;;;;;;2.90;95.73;99356.53;5056265;28;20230;-82
2023/02/25 04:52:36;;;;;;;4.23;1.30;;;;;;;2.89;95.79;99348.81;5056594;28;20259;-81
2023/02/25 04:55:03;;;;;;;4.83;1.67;;;;;;;2.94;96.59;99336.75;5056147;28;20209;-80
2023/02/25 04:57:29;;;;;;;6.90;1.53;;;;;;;2.86;96.77;99321.34;5057388;28;20264;-80
2023/02/25 04:59:57;;;;;;;6.10;1.10;;;;;;;2.83;96.84;99315.34;5057221;28;20279;-81
2023/02/25 05:02:23;;;;;;;4.63;1.40;;;;;;;2.89;95.76;99328.19;5056968;28;20201;-81
2023/02/25 05:04:49;;;;;;;5.20;1.20;;;;;;;2.88;94.70;99357.41;5056680;28;20278;-81
2023/02/25 05:07:16;;;;;;;1.97;0.77;;;;;;;2.93;95.47;99353.06;5057132;28;20226;-80
2023/02/25 05:09:43;;;;;;;4.70;1.33;;;;;;;2.88;94.16;99366.00;5056648;28;20320;-79
2023/02/25 05:12:10;;;;;;;2.50;0.90;;;;;;;2.93;93.66;99389.16;5056635;28;20554;-80
2023/02/25 05:14:37;;;;;;;5.80;1.10;;;;;;;2.87;91.44;99418.38;5056415;28;20209;-80
2023/02/25 05:17:04;;;;;;;3.43;0.83;;;;;;;2.86;90.72;99464.81;5056822;28;20198;-81
2023/02/25 05:19:30;;;;;;;6.03;0.90;;;;;;;2.83;91.03;99467.38;5056711;28;20225;-81
2023/02/25 05:21:57;;;;;;;2.50;0.90;;;;;;;2.86;90.12;99478.56;5056741;28;20283;-78
2023/02/25 05:24:23;;;;;;;3.27;0.90;;;;;;;2.80;89.34;99501.75;5056335;28;20205;-81
2023/02/25 05:26:51;;;;;;;3.00;1.20;;;;;;;2.85;90.15;99509.47;5056934;28;20226;-81
2023/02/25 05:29:17;;;;;;;2.83;1.30;;;;;;;2.75;90.93;99496.59;5057097;28;20232;-80
2023/02/25 05:31:43;;;;;;;5.83;1.40;;;;;;;2.80;92.26;99468.25;5057370;28;20202;-81
2023/02/25 05:34:11;;;;;;;2.83;1.40;;;;;;;2.68;93.43;99450.28;5056201;28;20224;-81
2023/02/25 05:36:37;;;;;;;3.47;1.33;;;;;;;2.66;94.30;99415.94;5056494;28;20257;-81
2023/02/25 05:39:05;;;;;;;5.50;1.60;;;;;;;2.57;95.13;99393.59;5056078;28;20295;-80
2023/02/25 05:41:31;;;;;;;3.67;1.23;;;;;;;2.56;94.39;99397.91;5056433;28;20226;-81
2023/02/25 05:43:58;;;;;;;3.20;1.20;;;;;;;2.59;93.68;99397.88;5055409;28;20733;-80
2023/02/25 05:46:25;;;;;;;4.10;1.20;;;;;;;2.64;93.89;99409.91;5055888;28;20230;-80
2023/02/25 05:48:51;;;;;;;7.23;1.47;;;;;;;2.62;94.41;99403.88;5055732;28;20265;-78
2023/02/25 05:51:22;;;;;;;4.07;1.30;;;;;;;2.66;94.23;99403.91;5055723;28;20280;-80
2023/02/25 05:53:48;;;;;;;4.70;1.67;;;;;;;2.72;94.43;99400.44;5055370;28;20206;-81
2023/02/25 05:56:17;;;;;;;3.90;1.17;;;;;;;2.67;93.25;99410.75;5056128;28;20207;-81
2023/02/25 05:58:45;;;;;;;4.40;1.20;;;;;;;2.73;93.75;99430.47;5055417;28;20225;-81
2023/02/25 06:01:14;;;;;;;4.10;1.27;;;;;;;2.65;93.25;99447.69;5055588;28;20679;-80
2023/02/25 06:03:41;;;;;;;4.47;1.00;;;;;;;2.62;90.49;99487.22;5055219;28;20213;-80
2023/02/25 06:06:11;;;;;;;2.93;0.90;;;;;;;2.58;89.09;99519.00;5055642;28;20312;-80
2023/02/25 06:08:39;;;;;;;5.10;1.40;;;;;;;2.53;88.47;99559.34;5054747;28;20732;-81
2023/02/25 06:11:06;;;;;;;3.63;1.20;;;;;;;2.52;88.85;99573.09;5055174;28;20194;-80
2023/02/25 06:13:33;;;;;;;3.60;1.00;;;;;;;2.54;89.11;99582.53;5055451;28;20565;-79
2023/02/25 06:16:02;;;;;;;2.33;0.90;;;;;;;2.55;90.48;99578.22;5055805;28;20634;-79
2023/02/25 06:18:29;;;;;;;3.23;1.00;;;;;;;2.50;88.25;99593.69;5054170;28;20221;-79
2023/02/25 06:20:55;;;;;;;2.97;1.03;;;;;;;2.49;86.96;99633.16;5054575;28;20201;-80
2023/02/25 06:23:21;;;;;;;3.93;1.20;;;;;;;2.44;85.85;99677.81;5054466;28;20201;-79
2023/02/25 06:25:49;;;;;;;2.33;1.00;;;;;;;2.42;87.25;99676.94;5054922;28;20571;-80
2023/02/25 06:28:15;;;;;;;2.27;0.93;;;;;;;2.37;85.31;99708.69;5054845;28;20214;-79
2023/02/25 06:30:42;;;;;;;3.40;1.07;;;;;;;2.37;84.51;99736.19;5052477;28;20271;-78
2023/02/25 06:33:08;;;;;;;2.87;1.30;;;;;;;2.32;84.42;99769.66;5053782;28;20748;-80
2023/02/25 06:35:35;;;;;;;2.83;1.30;;;;;;;2.31;83.61;99780.78;5054527;28;20672;-79
2023/02/25 06:38:01;;;;;;;2.70;1.10;;;;;;;2.23;81.76;99835.69;5054343;28;20227;-80
2023/02/25 06:40:28;;;;;;;1.87;1.27;;;;;;;2.24;82.58;99864.03;5051827;28;20221;-80
2023/02/25 06:42:56;;;;;;;1.73;0.70;;;;;;;2.29;82.06;99879.50;5055026;28;20200;-79
2023/02/25 06:45:22;;;;;;;1.23;0.73;;;;;;;2.30;82.50;99879.53;5054245;28;20232;-80
2023/02/25 06:47:49;;;;;;;1.37;0.67;;;;;;;2.30;82.45;99902.69;5054401;28;20217;-80
2023/02/25 06:50:16;;;;;;;2.20;0.90;;;;;;;2.17;81.35;99906.03;5054454;28;20218;-80
2023/02/25 06:52:42;;;;;;;2.17;0.90;;;;;;;2.14;82.47;99898.28;5054506;28;20210;-79
2023/02/25 06:55:10;;;;;;;0.90;0.50;;;;;;;2.15;83.08;99903.44;5054073;28;20193;-81
2023/02/25 06:57:36;;;;;;;2.70;0.80;;;;;;;2.16;83.63;99886.28;5054590;28;20195;-80
2023/02/25 07:00:05;;;;;;;1.70;0.60;;;;;;;2.06;82.88;99876.78;5054503;28;20217;-79
2023/02/25 07:02:32;;;;;;;1.90;0.90;;;;;;;2.15;83.12;99884.56;5054624;28;20279;-80
2023/02/25 07:05:00;;;;;;;1.87;0.63;;;;;;;2.22;83.23;99885.47;5053947;28;20205;-79
2023/02/25 07:07:26;;;;;;;2.50;1.33;;;;;;;2.27;83.17;99883.78;5054945;28;20296;-80
2023/02/25 07:09:53;;;;;;;2.90;1.00;;;;;;;2.16;83.20;99884.59;5054453;28;20278;-79
2023/02/25 07:12:19;;;;;;;3.17;1.20;;;;;;;2.17;84.34;99878.56;5057008;28;20283;-80
2023/02/25 07:14:45;;;;;;;1.47;0.67;;;;;;;2.26;83.20;99867.47;5057942;28;20296;-79
2023/02/25 07:17:13;;;;;;;2.20;0.73;;;;;;;2.28;82.83;99895.78;5058988;28;20202;-81
2023/02/25 07:19:39;;;;;;;1.93;0.80;;;;;;;2.25;82.05;99922.41;5058808;28;20229;-80
2023/02/25 07:22:08;;;;;;;2.27;0.70;;;;;;;2.30;81.77;99919.84;5058974;28;20563;-81
2023/02/25 07:24:35;;;;;;;1.13;0.60;;;;;;;2.24;81.51;99935.25;5058643;28;20241;-78
2023/02/25 07:27:01;;;;;;;0.60;0.30;;;;;;;2.26;80.97;99947.31;5058177;28;20607;-79
2023/02/25 07:29:27;;;;;;;0.63;0.40;;;;;;;2.27;79.97;99974.75;5058598;28;20721;-80
2023/02/25 07:31:54;;;;;;;0.40;0.40;;;;;;;2.36;79.97;99984.28;5058195;28;20208;-80
2023/02/25 07:34:21;;;;;;;1.17;0.60;;;;;;;2.27;80.03;99999.66;5057825;28;20205;-81
2023/02/25 07:36:47;;;;;;;1.90;0.30;;;;;;;2.30;80.48;100010.84;5059417;28;20271;-81
2023/02/25 07:39:14;;;;;;;1.17;0.67;;;;;;;2.28;79.97;100014.25;5058194;28;20260;-81
2023/02/25 07:41:40;;;;;;;2.63;0.60;;;;;;;2.29;80.55;100010.84;5058295;28;20201;-79
2023/02/25 07:44:08;;;;;;;0.90;0.47;;;;;;;2.24;80.74;100010.81;5058031;28;20206;-80
2023/02/25 07:46:35;;;;;;;1.07;0.40;;;;;;;2.13;80.58;100013.28;5057952;28;20676;-79
2023/02/25 07:49:01;;;;;;;1.67;0.30;;;;;;;2.19;81.25;100007.31;5058289;28;20229;-80
2023/02/25 07:51:29;;;;;;;1.70;0.50;;;;;;;2.23;81.48;99993.63;5057977;28;20213;-80
2023/02/25 07:53:57;;;;;;;1.43;0.50;;;;;;;2.18;80.85;100001.31;5057537;28;20205;-80
2023/02/25 07:56:26;;;;;;;1.77;0.50;;;;;;;2.21;81.65;99982.44;5057252;28;20323;-79
2023/02/25 07:58:52;;;;;;;0.97;0.40;;;;;;;2.27;81.26;99985.06;5057850;28;20221;-80
2023/02/25 08:01:23;;;;;;;1.40;0.50;;;;;;;2.38;81.73;99983.44;5057737;28;20880;-80
2023/02/25 08:03:50;;;;;;;1.13;0.60;;;;;;;2.37;81.48;99986.00;5057691;28;20660;-80
2023/02/25 08:06:17;;;;;;;1.27;0.50;;;;;;;2.37;80.98;99996.31;5058040;28;20233;-80
2023/02/25 08:08:44;;;;;;;1.97;0.97;;;;;;;2.43;80.62;100008.38;5057643;28;20229;-80
2023/02/25 08:11:13;;;;;;;1.00;0.50;;;;;;;2.40;81.41;100001.50;5056605;28;20636;-80
2023/02/25 08:13:40;;;;;;;1.10;0.40;;;;;;;2.38;80.37;100010.91;5057648;28;20265;-80
2023/02/25 08:16:07;;;;;;;1.40;0.60;;;;;;;2.55;79.25;100023.91;5056773;28;20204;-80
2023/02/25 08:18:34;;;;;;;1.17;0.60;;;;;;;2.49;78.37;100065.06;5057075;28;20218;-80
2023/02/25 08:21:00;;;;;;;1.33;0.50;;;;;;;2.58;79.05;100078.91;5057299;28;20290;-79
2023/02/25 08:23:26;;;;;;;3.73;0.93;;;;;;;2.61;77.47;100096.09;5055023;28;20241;-80
2023/02/25 08:25:56;;;;;;;2.43;0.60;;;;;;;2.65;77.58;100097.81;5056857;28;20259;-80
2023/02/25 08:28:22;;;;;;;4.47;0.93;;;;;;;2.71;77.65;100108.19;5057110;28;20230;-80
2023/02/25 08:30:49;;;;;;;2.35;1.10;;;;;;;2.66;76.71;100137.38;5056378;28;20493;-80
2023/02/25 08:33:15;;;;;;;2.20;0.57;;;;;;;2.43;75.49;100166.34;5056309;28;20552;-78
2023/02/25 08:35:42;;;;;;;1.13;1.03;;;;;;;2.34;75.61;100181.72;5057167;28;20263;-79
2023/02/25 08:38:08;;;;;;;1.73;0.80;;;;;;;2.48;77.65;100167.25;5056776;28;20202;-80
2023/02/25 08:40:35;;;;;;;1.80;0.80;;;;;;;2.50;75.67;100162.13;5056509;28;20440;-81
2023/02/25 08:43:02;;;;;;;2.10;0.53;;;;;;;2.53;75.46;100164.72;5057034;28;20205;-80
2023/02/25 08:45:29;;;;;;;1.33;0.50;;;;;;;2.55;75.65;100178.47;5057084;28;20260;-80
2023/02/25 08:47:55;;;;;;;1.67;0.67;;;;;;;2.56;74.99;100206.00;5056597;28;20229;-80
2023/02/25 08:50:22;;;;;;;2.00;0.47;;;;;;;2.66;74.60;100200.06;5056678;28;20280;-80
2023/02/25 08:52:49;;;;;;;2.80;0.70;;;;;;;2.68;74.67;100234.44;5056809;28;20210;-81
2023/02/25 08:55:17;;;;;;;1.30;0.60;;;;;;;2.68;73.57;100243.91;5056529;28;20206;-80
2023/02/25 08:57:44;;;;;;;1.90;0.63;;;;;;;2.76;73.06;100253.41;5056447;28;20210;-81
2023/02/25 09:00:14;;;;;;;1.07;0.60;;;;;;;2.75;69.52;100292.06;5056257;28;20232;-81
2023/02/25 09:02:41;;;;;;;0.67;0.40;;;;;;;2.71;69.84;100344.41;5056458;28;20202;-79
2023/02/25 09:05:08;;;;;;;2.73;0.60;;;;;;;2.89;71.17;100347.19;5056300;28;20205;-80
2023/02/25 09:07:35;;;;;;;2.37;0.60;;;;;;;3.01;71.38;100354.19;5056673;28;20232;-80
2023/02/25 09:10:03;;;;;;;1.60;0.60;;;;;;;2.81;69.68;100381.47;5056139;28;20225;-80
2023/02/25 09:12:30;;;;;;;0.40;0.40;;;;;;;3.01;70.99;100381.69;5056317;28;20584;-80
2023/02/25 09:14:56;;;;;;;1.23;0.60;;;;;;;3.14;72.06;100376.69;5056600;28;20611;-81
2023/02/25 09:17:24;;;;;;;1.27;0.53;;;;;;;3.05;70.05;100378.31;5056463;28;20201;-80
2023/02/25 09:19:50;;;;;;;2.83;0.70;;;;;;;3.17;71.04;100381.00;5056103;28;20230;-80
2023/02/25 09:22:18;;;;;;;1.60;0.50;;;;;;;3.30;71.50;100384.59;5056439;28;20205;-80
2023/02/25 09:24:44;;;;;;;2.00;0.80;;;;;;;3.49;72.11;100362.38;5056154;28;20356;-80
2023/02/25 09:27:11;;;;;;;0.57;0.57;;;;;;;3.54;71.30;100365.88;5056436;28;20252;-81
2023/02/25 09:29:40;;;;;;;0.60;0.60;;;;;;;3.68;70.62;100371.16;5056241;28;20906;-81
2023/02/25 09:32:07;;;;;;;0.63;0.40;;;;;;;3.79;69.98;100387.59;5055966;28;20205;-80
2023/02/25 09:34:35;;;;;;;1.13;0.60;;;;;;;3.74;70.09;100408.19;5055600;28;20209;-80
2023/02/25 09:37:03;;;;;;;0.97;0.40;;;;;;;3.71;68.08;100415.06;5056603;28;20208;-80
2023/02/25 09:39:30;;;;;;;0.30;0.30;;;;;;;3.56;67.95;100457.94;5055773;28;20291;-81
2023/02/25 09:42:02;;;;;;;0.30;0.30;;;;;;;3.50;67.63;100490.56;5056580;28;20213;-80
2023/02/25 09:44:30;;;;;;;1.23;0.50;;;;;;;3.45;68.13;100503.44;5055685;28;20233;-79
2023/02/25 09:47:02;;;;;;;0.30;0.30;;;;;;;3.43;68.66;100501.66;5055996;28;20205;-81
2023/02/25 09:49:33;;;;;;;0.87;0.50;;;;;;;3.28;68.24;100505.81;5055854;28;20229;-82
2023/02/25 09:52:07;;;;;;;0.37;0.20;;;;;;;3.24;68.83;100492.88;5056056;28;20268;-80
2023/02/25 09:54:38;;;;;;;1.30;0.90;;;;;;;3.19;69.34;100495.38;5056179;28;20735;-80
2023/02/25 09:57:07;;;;;;;1.33;0.57;;;;;;;3.20;69.55;100481.63;5053708;28;20235;-82
2023/02/25 09:59:34;;;;;;;0.47;0.40;;;;;;;3.20;70.26;100473.91;5055375;28;20233;-80
2023/02/25 10:02:19;;;;;;;1.57;0.47;;;;;;;3.23;70.26;100452.44;5055005;28;20212;-81
2023/02/25 10:04:55;;;;;;;0.90;0.60;;;;;;;3.25;71.33;100435.25;5055041;28;20602;-82
2023/02/25 10:07:29;;;;;;;2.60;1.00;;;;;;;3.16;71.86;100424.00;5055430;28;20206;-78
2023/02/25 10:10:02;;;;;;;1.00;0.70;;;;;;;3.13;71.75;100405.03;5054322;28;20227;-78
2023/02/25 10:12:34;;;;;;;0.70;0.70;;;;;;;2.99;72.91;100392.00;5054722;28;20243;-80
2023/02/25 10:15:23;;;;;;;1.53;0.40;;;;;;;3.17;73.06;100365.53;5054468;28;20213;-78
2023/02/25 10:18:07;;;;;;;1.77;0.30;;;;;;;3.36;72.13;100357.13;5055016;28;20676;-81
2023/02/25 10:20:47;;;;;;;2.53;0.50;;;;;;;3.47;72.73;100364.97;5055381;28;20687;-80
2023/02/25 10:23:27;;;;;;;0.60;0.60;;;;;;;3.53;73.01;100353.84;5055435;28;20737;-80
2023/02/25 10:25:58;;;;;;;2.33;0.60;;;;;;;3.63;72.18;100359.91;5054313;28;20206;-80
2023/02/25 10:28:24;;;;;;;1.37;0.53;;;;;;;3.68;72.26;100360.84;5054958;28;20222;-81
2023/02/25 10:30:58;;;;;;;0.40;0.40;;;;;;;3.61;72.95;100375.41;5054238;28;20267;-80
2023/02/25 10:33:26;;;;;;;1.53;0.50;;;;;;;3.52;73.27;100362.41;5052721;28;20340;-81
2023/02/25 10:35:57;;;;;;;0.83;0.40;;;;;;;3.57;73.46;100364.19;5054694;28;20195;-81
2023/02/25 10:38:25;;;;;;;2.53;0.60;;;;;;;3.55;75.47;100334.06;5052080;28;20210;-82
2023/02/25 10:40:54;;;;;;;2.13;0.60;;;;;;;3.50;75.60;100303.06;5054981;28;20219;-81
2023/02/25 10:43:23;;;;;;;1.73;0.50;;;;;;;3.58;74.23;100278.16;5052158;28;20204;-82
2023/02/25 10:45:56;;;;;;;0.93;0.63;;;;;;;3.64;74.08;100313.47;5054741;28;20227;-82
2023/02/25 10:48:24;;;;;;;1.80;0.60;;;;;;;3.57;72.99;100328.06;5056721;28;20704;-82
2023/02/25 10:51:04;;;;;;;0.70;0.70;;;;;;;3.73;74.04;100325.59;5058963;28;20834;-82
2023/02/25 10:53:33;;;;;;;1.20;0.40;;;;;;;3.88;74.59;100319.66;5058879;28;20574;-80
2023/02/25 10:56:02;;;;;;;0.77;0.57;;;;;;;3.85;74.09;100310.19;5059495;28;20202;-81
2023/02/25 10:58:35;;;;;;;0.70;0.70;;;;;;;4.00;74.70;100285.31;5059229;28;20228;-82
2023/02/25 11:01:06;;;;;;;1.53;1.00;;;;;;;4.11;76.00;100260.41;5059012;28;20566;-80
2023/02/25 11:03:53;;;;;;;0.73;0.60;;;;;;;4.18;73.02;100298.31;5059360;28;20240;-80
2023/02/25 11:06:24;;;;;;;2.57;1.80;;;;;;;4.25;72.64;100336.25;5059565;28;20206;-80
2023/02/25 11:08:53;;;;;;;4.20;1.20;;;;;;;3.72;71.63;100378.06;5059466;28;20231;-81
2023/02/25 11:11:22;;;;;;;1.20;0.80;;;;;;;3.80;72.82;100379.00;5059693;28;20232;-80
2023/02/25 11:14:02;;;;;;;1.60;1.23;;;;;;;3.95;72.64;100380.84;5058250;28;20198;-80
2023/02/25 11:16:30;;;;;;;5.00;2.37;;;;;;;3.11;78.21;100361.19;5055445;28;20198;-80
2023/02/25 11:18:59;;;;;;;3.70;3.40;;;;;;;2.69;82.77;100200.06;5057828;28;20236;-80
2023/02/25 11:21:33;;;;;;;2.33;2.10;;;;;;;2.41;84.75;100087.34;5057906;28;20673;-80
2023/02/25 11:24:04;;;;;;;7.60;4.50;;;;;;;2.36;85.84;99990.28;5057555;28;20202;-79
2023/02/25 11:26:33;;;;;;;3.07;1.97;;;;;;;2.59;84.86;99951.78;5046831;28;20205;-80
2023/02/25 11:29:04;;;;;;;2.23;2.10;;;;;;;3.02;84.96;99950.28;5047459;28;20222;-80
2023/02/25 11:31:35;;;;;;;1.50;0.97;;;;;;;3.41;84.41;99935.75;5056562;28;20255;-79
2023/02/25 11:34:06;;;;;;;3.33;3.03;;;;;;;3.62;81.91;99978.81;5047972;28;20249;-80
2023/02/25 11:36:35;;;;;;;3.50;2.53;;;;;;;3.64;76.31;100064.84;5048487;28;20197;-80
2023/02/25 11:39:14;;;;;;;3.90;2.60;;;;;;;3.86;75.17;100163.88;5047263;28;20222;-80
2023/02/25 11:41:42;;;;;;;2.90;2.70;;;;;;;3.84;73.76;100217.22;5055350;28;20198;-80
2023/02/25 11:44:27;;;;;;;4.20;3.37;;;;;;;3.66;73.06;100300.59;5056866;28;20552;-80